sensor_id;sensor_type;location;lat;lon;timestamp;P1;durP1;ratioP1;P2;durP2;ratioP2
8333;SDS011;4204;43.004;23.052;2023-06-19T00:02:24;8.83;;;7.93;;
8333;SDS011;4204;43.004;23.052;2023-06-19T00:04:53;9.10;;;8.20;;
8333;SDS011;4204;43.004;23.052;2023-06-19T00:07:21;10.60;;;7.97;;
8333;SDS011;4204;43.004;23.052;2023-06-19T00:09:49;10.67;;;8.40;;
8333;SDS011;4204;43.004;23.052;2023-06-19T00:12:16;8.60;;;7.70;;
8333;SDS011;4204;43.004;23.052;2023-06-19T00:14:44;9.43;;;7.87;;
8333;SDS011;4204;43.004;23.052;2023-06-19T00:17:12;10.60;;;8.17;;
8333;SDS011;4204;43.004;23.052;2023-06-19T00:19:42;7.93;;;7.13;;
8333;SDS011;4204;43.004;23.052;2023-06-19T00:22:11;8.97;;;7.20;;
8333;SDS011;4204;43.004;23.052;2023-06-19T00:24:39;10.60;;;8.10;;
8333;SDS011;4204;43.004;23.052;2023-06-19T00:27:07;8.13;;;7.20;;
8333;SDS011;4204;43.004;23.052;2023-06-19T00:29:34;8.37;;;7.50;;
8333;SDS011;4204;43.004;23.052;2023-06-19T00:32:02;8.00;;;7.20;;
8333;SDS011;4204;43.004;23.052;2023-06-19T00:34:30;7.87;;;6.77;;
8333;SDS011;4204;43.004;23.052;2023-06-19T00:36:58;9.10;;;7.63;;
8333;SDS011;4204;43.004;23.052;2023-06-19T00:39:27;8.73;;;7.20;;
8333;SDS011;4204;43.004;23.052;2023-06-19T00:41:56;10.37;;;7.10;;
8333;SDS011;4204;43.004;23.052;2023-06-19T00:44:23;7.93;;;7.17;;
8333;SDS011;4204;43.004;23.052;2023-06-19T00:46:51;9.37;;;7.77;;
8333;SDS011;4204;43.004;23.052;2023-06-19T00:49:23;8.53;;;7.60;;
8333;SDS011;4204;43.004;23.052;2023-06-19T00:51:52;9.27;;;7.87;;
8333;SDS011;4204;43.004;23.052;2023-06-19T00:54:20;8.50;;;7.60;;
8333;SDS011;4204;43.004;23.052;2023-06-19T00:56:50;9.60;;;7.27;;
8333;SDS011;4204;43.004;23.052;2023-06-19T00:59:19;7.87;;;6.93;;
8333;SDS011;4204;43.004;23.052;2023-06-19T01:01:48;11.37;;;7.47;;
8333;SDS011;4204;43.004;23.052;2023-06-19T01:04:16;10.77;;;7.00;;
8333;SDS011;4204;43.004;23.052;2023-06-19T01:06:46;10.57;;;7.77;;
8333;SDS011;4204;43.004;23.052;2023-06-19T01:09:25;9.67;;;6.93;;
8333;SDS011;4204;43.004;23.052;2023-06-19T01:12:01;9.47;;;7.70;;
8333;SDS011;4204;43.004;23.052;2023-06-19T01:14:35;11.50;;;7.20;;
8333;SDS011;4204;43.004;23.052;2023-06-19T01:17:06;12.63;;;7.30;;
8333;SDS011;4204;43.004;23.052;2023-06-19T01:19:34;8.03;;;6.93;;
8333;SDS011;4204;43.004;23.052;2023-06-19T01:22:04;9.03;;;7.80;;
8333;SDS011;4204;43.004;23.052;2023-06-19T01:24:32;10.70;;;6.87;;
8333;SDS011;4204;43.004;23.052;2023-06-19T01:27:01;9.60;;;6.90;;
8333;SDS011;4204;43.004;23.052;2023-06-19T01:29:28;12.20;;;7.73;;
8333;SDS011;4204;43.004;23.052;2023-06-19T01:31:58;8.23;;;6.57;;
8333;SDS011;4204;43.004;23.052;2023-06-19T01:34:31;8.87;;;6.70;;
8333;SDS011;4204;43.004;23.052;2023-06-19T01:37:00;7.80;;;7.00;;
8333;SDS011;4204;43.004;23.052;2023-06-19T01:39:30;9.90;;;6.70;;
8333;SDS011;4204;43.004;23.052;2023-06-19T01:41:59;11.57;;;7.43;;
8333;SDS011;4204;43.004;23.052;2023-06-19T01:44:30;9.73;;;6.70;;
8333;SDS011;4204;43.004;23.052;2023-06-19T01:46:58;7.97;;;6.67;;
8333;SDS011;4204;43.004;23.052;2023-06-19T01:49:25;8.03;;;6.87;;
8333;SDS011;4204;43.004;23.052;2023-06-19T01:51:53;9.07;;;6.10;;
8333;SDS011;4204;43.004;23.052;2023-06-19T01:54:23;8.97;;;6.70;;
8333;SDS011;4204;43.004;23.052;2023-06-19T01:56:52;7.37;;;6.67;;
8333;SDS011;4204;43.004;23.052;2023-06-19T01:59:19;6.83;;;6.13;;
8333;SDS011;4204;43.004;23.052;2023-06-19T02:01:48;7.00;;;6.33;;
8333;SDS011;4204;43.004;23.052;2023-06-19T02:04:16;8.07;;;6.93;;
8333;SDS011;4204;43.004;23.052;2023-06-19T02:06:43;9.40;;;6.50;;
8333;SDS011;4204;43.004;23.052;2023-06-19T02:09:11;6.50;;;5.90;;
8333;SDS011;4204;43.004;23.052;2023-06-19T02:11:39;8.90;;;7.10;;
8333;SDS011;4204;43.004;23.052;2023-06-19T02:14:09;7.97;;;5.93;;
8333;SDS011;4204;43.004;23.052;2023-06-19T02:16:37;6.43;;;5.83;;
8333;SDS011;4204;43.004;23.052;2023-06-19T02:19:08;7.10;;;6.40;;
8333;SDS011;4204;43.004;23.052;2023-06-19T02:21:38;8.87;;;5.80;;
8333;SDS011;4204;43.004;23.052;2023-06-19T02:24:06;6.53;;;5.83;;
8333;SDS011;4204;43.004;23.052;2023-06-19T02:26:33;7.00;;;6.30;;
8333;SDS011;4204;43.004;23.052;2023-06-19T02:29:01;6.63;;;6.03;;
8333;SDS011;4204;43.004;23.052;2023-06-19T02:31:30;6.63;;;5.90;;
8333;SDS011;4204;43.004;23.052;2023-06-19T02:33:58;7.07;;;5.80;;
8333;SDS011;4204;43.004;23.052;2023-06-19T02:36:25;12.83;;;6.13;;
8333;SDS011;4204;43.004;23.052;2023-06-19T02:38:54;9.13;;;6.13;;
8333;SDS011;4204;43.004;23.052;2023-06-19T02:41:22;8.10;;;5.83;;
8333;SDS011;4204;43.004;23.052;2023-06-19T02:43:49;8.53;;;5.87;;
8333;SDS011;4204;43.004;23.052;2023-06-19T02:46:17;7.63;;;5.57;;
8333;SDS011;4204;43.004;23.052;2023-06-19T02:48:46;6.30;;;5.70;;
8333;SDS011;4204;43.004;23.052;2023-06-19T02:51:15;6.40;;;5.80;;
8333;SDS011;4204;43.004;23.052;2023-06-19T02:53:43;7.83;;;5.97;;
8333;SDS011;4204;43.004;23.052;2023-06-19T02:56:11;6.70;;;6.00;;
8333;SDS011;4204;43.004;23.052;2023-06-19T02:58:38;6.40;;;5.80;;
8333;SDS011;4204;43.004;23.052;2023-06-19T03:01:08;7.13;;;6.03;;
8333;SDS011;4204;43.004;23.052;2023-06-19T03:03:36;9.67;;;5.87;;
8333;SDS011;4204;43.004;23.052;2023-06-19T03:06:06;7.13;;;6.30;;
8333;SDS011;4204;43.004;23.052;2023-06-19T03:08:34;6.67;;;5.93;;
8333;SDS011;4204;43.004;23.052;2023-06-19T03:11:02;7.53;;;6.50;;
8333;SDS011;4204;43.004;23.052;2023-06-19T03:13:33;9.67;;;6.57;;
8333;SDS011;4204;43.004;23.052;2023-06-19T03:16:11;8.33;;;5.83;;
8333;SDS011;4204;43.004;23.052;2023-06-19T03:18:41;5.90;;;5.30;;
8333;SDS011;4204;43.004;23.052;2023-06-19T03:21:12;7.50;;;5.73;;
8333;SDS011;4204;43.004;23.052;2023-06-19T03:23:41;7.50;;;5.90;;
8333;SDS011;4204;43.004;23.052;2023-06-19T03:26:09;8.43;;;5.83;;
8333;SDS011;4204;43.004;23.052;2023-06-19T03:28:39;6.60;;;5.90;;
8333;SDS011;4204;43.004;23.052;2023-06-19T03:31:08;7.47;;;5.57;;
8333;SDS011;4204;43.004;23.052;2023-06-19T03:33:36;8.53;;;5.83;;
8333;SDS011;4204;43.004;23.052;2023-06-19T03:36:04;7.03;;;6.10;;
8333;SDS011;4204;43.004;23.052;2023-06-19T03:38:54;6.27;;;5.23;;
8333;SDS011;4204;43.004;23.052;2023-06-19T03:41:26;8.97;;;5.83;;
8333;SDS011;4204;43.004;23.052;2023-06-19T03:43:55;7.57;;;6.13;;
8333;SDS011;4204;43.004;23.052;2023-06-19T03:46:23;6.30;;;5.70;;
8333;SDS011;4204;43.004;23.052;2023-06-19T03:48:51;6.60;;;5.90;;
8333;SDS011;4204;43.004;23.052;2023-06-19T03:51:20;7.77;;;6.20;;
8333;SDS011;4204;43.004;23.052;2023-06-19T03:53:48;8.53;;;5.60;;
8333;SDS011;4204;43.004;23.052;2023-06-19T03:56:18;6.70;;;5.63;;
8333;SDS011;4204;43.004;23.052;2023-06-19T03:58:46;7.00;;;5.27;;
8333;SDS011;4204;43.004;23.052;2023-06-19T04:01:13;6.20;;;5.60;;
8333;SDS011;4204;43.004;23.052;2023-06-19T04:03:41;7.23;;;5.67;;
8333;SDS011;4204;43.004;23.052;2023-06-19T04:06:09;8.27;;;5.90;;
8333;SDS011;4204;43.004;23.052;2023-06-19T04:08:39;7.90;;;5.33;;
8333;SDS011;4204;43.004;23.052;2023-06-19T04:11:07;8.23;;;5.47;;
8333;SDS011;4204;43.004;23.052;2023-06-19T04:13:37;6.73;;;5.93;;
8333;SDS011;4204;43.004;23.052;2023-06-19T04:16:05;8.80;;;5.90;;
8333;SDS011;4204;43.004;23.052;2023-06-19T04:18:33;7.20;;;5.90;;
8333;SDS011;4204;43.004;23.052;2023-06-19T04:21:00;6.50;;;5.80;;
8333;SDS011;4204;43.004;23.052;2023-06-19T04:23:28;7.07;;;6.20;;
8333;SDS011;4204;43.004;23.052;2023-06-19T04:25:56;9.37;;;5.57;;
8333;SDS011;4204;43.004;23.052;2023-06-19T04:28:23;5.80;;;5.30;;
8333;SDS011;4204;43.004;23.052;2023-06-19T04:30:53;9.47;;;6.20;;
8333;SDS011;4204;43.004;23.052;2023-06-19T04:33:26;8.70;;;6.10;;
8333;SDS011;4204;43.004;23.052;2023-06-19T04:35:54;6.87;;;6.10;;
8333;SDS011;4204;43.004;23.052;2023-06-19T04:38:21;6.57;;;5.70;;
8333;SDS011;4204;43.004;23.052;2023-06-19T04:40:50;7.60;;;6.00;;
8333;SDS011;4204;43.004;23.052;2023-06-19T04:43:18;5.97;;;5.40;;
8333;SDS011;4204;43.004;23.052;2023-06-19T04:45:46;7.23;;;6.47;;
8333;SDS011;4204;43.004;23.052;2023-06-19T04:48:15;7.77;;;6.27;;
8333;SDS011;4204;43.004;23.052;2023-06-19T04:50:42;9.33;;;6.10;;
8333;SDS011;4204;43.004;23.052;2023-06-19T04:53:10;7.27;;;6.43;;
8333;SDS011;4204;43.004;23.052;2023-06-19T04:55:38;8.37;;;6.73;;
8333;SDS011;4204;43.004;23.052;2023-06-19T04:58:06;7.73;;;6.87;;
8333;SDS011;4204;43.004;23.052;2023-06-19T05:00:34;9.50;;;7.53;;
8333;SDS011;4204;43.004;23.052;2023-06-19T05:03:01;9.73;;;8.17;;
8333;SDS011;4204;43.004;23.052;2023-06-19T05:05:30;10.00;;;8.20;;
8333;SDS011;4204;43.004;23.052;2023-06-19T05:07:59;10.07;;;8.70;;
8333;SDS011;4204;43.004;23.052;2023-06-19T05:10:27;12.40;;;8.87;;
8333;SDS011;4204;43.004;23.052;2023-06-19T05:12:55;11.83;;;9.20;;
8333;SDS011;4204;43.004;23.052;2023-06-19T05:15:22;9.60;;;8.60;;
8333;SDS011;4204;43.004;23.052;2023-06-19T05:17:50;9.83;;;8.80;;
8333;SDS011;4204;43.004;23.052;2023-06-19T05:20:18;9.53;;;8.33;;
8333;SDS011;4204;43.004;23.052;2023-06-19T05:22:47;11.53;;;7.80;;
8333;SDS011;4204;43.004;23.052;2023-06-19T05:25:14;9.43;;;8.53;;
8333;SDS011;4204;43.004;23.052;2023-06-19T05:27:42;9.20;;;8.20;;
8333;SDS011;4204;43.004;23.052;2023-06-19T05:30:10;9.00;;;8.10;;
8333;SDS011;4204;43.004;23.052;2023-06-19T05:32:39;10.63;;;8.03;;
8333;SDS011;4204;43.004;23.052;2023-06-19T05:35:07;8.80;;;7.47;;
8333;SDS011;4204;43.004;23.052;2023-06-19T05:37:35;9.60;;;7.50;;
8333;SDS011;4204;43.004;23.052;2023-06-19T05:40:06;8.40;;;7.50;;
8333;SDS011;4204;43.004;23.052;2023-06-19T05:42:34;8.13;;;7.33;;
8333;SDS011;4204;43.004;23.052;2023-06-19T05:45:03;9.70;;;6.90;;
8333;SDS011;4204;43.004;23.052;2023-06-19T05:47:32;7.80;;;7.03;;
8333;SDS011;4204;43.004;23.052;2023-06-19T05:50:00;9.63;;;8.63;;
8333;SDS011;4204;43.004;23.052;2023-06-19T05:52:29;11.47;;;9.23;;
8333;SDS011;4204;43.004;23.052;2023-06-19T05:54:57;8.97;;;7.60;;
8333;SDS011;4204;43.004;23.052;2023-06-19T05:57:27;7.80;;;7.00;;
8333;SDS011;4204;43.004;23.052;2023-06-19T05:59:55;9.50;;;7.13;;
8333;SDS011;4204;43.004;23.052;2023-06-19T06:02:23;8.10;;;6.80;;
8333;SDS011;4204;43.004;23.052;2023-06-19T06:04:54;9.97;;;7.53;;
8333;SDS011;4204;43.004;23.052;2023-06-19T06:07:22;10.00;;;7.90;;
8333;SDS011;4204;43.004;23.052;2023-06-19T06:09:50;7.70;;;7.00;;
8333;SDS011;4204;43.004;23.052;2023-06-19T06:12:18;8.07;;;7.27;;
8333;SDS011;4204;43.004;23.052;2023-06-19T06:14:47;8.77;;;7.47;;
8333;SDS011;4204;43.004;23.052;2023-06-19T06:17:15;7.90;;;6.87;;
8333;SDS011;4204;43.004;23.052;2023-06-19T06:19:42;7.70;;;6.20;;
8333;SDS011;4204;43.004;23.052;2023-06-19T06:22:10;8.40;;;6.63;;
8333;SDS011;4204;43.004;23.052;2023-06-19T06:24:38;7.53;;;6.30;;
8333;SDS011;4204;43.004;23.052;2023-06-19T06:27:06;7.77;;;6.63;;
8333;SDS011;4204;43.004;23.052;2023-06-19T06:29:33;8.20;;;6.23;;
8333;SDS011;4204;43.004;23.052;2023-06-19T06:32:04;7.97;;;6.00;;
8333;SDS011;4204;43.004;23.052;2023-06-19T06:34:33;6.93;;;6.23;;
8333;SDS011;4204;43.004;23.052;2023-06-19T06:37:01;7.47;;;6.67;;
8333;SDS011;4204;43.004;23.052;2023-06-19T06:39:29;7.67;;;6.50;;
8333;SDS011;4204;43.004;23.052;2023-06-19T06:41:57;8.63;;;5.93;;
8333;SDS011;4204;43.004;23.052;2023-06-19T06:44:24;7.03;;;5.90;;
8333;SDS011;4204;43.004;23.052;2023-06-19T06:46:52;6.70;;;5.97;;
8333;SDS011;4204;43.004;23.052;2023-06-19T06:49:22;6.50;;;5.87;;
8333;SDS011;4204;43.004;23.052;2023-06-19T06:51:50;7.27;;;5.60;;
8333;SDS011;4204;43.004;23.052;2023-06-19T06:54:18;6.33;;;5.73;;
8333;SDS011;4204;43.004;23.052;2023-06-19T06:56:46;12.20;;;5.80;;
8333;SDS011;4204;43.004;23.052;2023-06-19T06:59:14;7.17;;;5.40;;
8333;SDS011;4204;43.004;23.052;2023-06-19T07:01:42;5.80;;;5.20;;
8333;SDS011;4204;43.004;23.052;2023-06-19T07:04:10;8.83;;;6.13;;
8333;SDS011;4204;43.004;23.052;2023-06-19T07:06:39;6.23;;;5.60;;
8333;SDS011;4204;43.004;23.052;2023-06-19T07:09:07;5.97;;;5.37;;
8333;SDS011;4204;43.004;23.052;2023-06-19T07:11:34;5.80;;;5.20;;
8333;SDS011;4204;43.004;23.052;2023-06-19T07:14:02;5.60;;;5.10;;
8333;SDS011;4204;43.004;23.052;2023-06-19T07:16:30;5.70;;;5.20;;
8333;SDS011;4204;43.004;23.052;2023-06-19T07:18:57;6.63;;;5.93;;
8333;SDS011;4204;43.004;23.052;2023-06-19T07:21:25;7.93;;;6.20;;
8333;SDS011;4204;43.004;23.052;2023-06-19T07:23:56;6.30;;;5.70;;
8333;SDS011;4204;43.004;23.052;2023-06-19T07:26:24;8.73;;;6.10;;
8333;SDS011;4204;43.004;23.052;2023-06-19T07:28:52;8.23;;;6.83;;
8333;SDS011;4204;43.004;23.052;2023-06-19T07:31:20;8.97;;;5.80;;
8333;SDS011;4204;43.004;23.052;2023-06-19T07:33:47;8.93;;;6.10;;
8333;SDS011;4204;43.004;23.052;2023-06-19T07:36:15;6.00;;;5.50;;
8333;SDS011;4204;43.004;23.052;2023-06-19T07:38:43;7.10;;;6.23;;
8333;SDS011;4204;43.004;23.052;2023-06-19T07:41:12;5.77;;;5.20;;
8333;SDS011;4204;43.004;23.052;2023-06-19T07:43:40;6.60;;;5.83;;
8333;SDS011;4204;43.004;23.052;2023-06-19T07:46:08;7.30;;;6.33;;
8333;SDS011;4204;43.004;23.052;2023-06-19T07:48:36;6.77;;;6.07;;
8333;SDS011;4204;43.004;23.052;2023-06-19T07:51:04;7.10;;;5.70;;
8333;SDS011;4204;43.004;23.052;2023-06-19T07:53:32;6.17;;;5.57;;
8333;SDS011;4204;43.004;23.052;2023-06-19T07:56:00;6.87;;;6.17;;
8333;SDS011;4204;43.004;23.052;2023-06-19T07:58:29;6.30;;;5.70;;
8333;SDS011;4204;43.004;23.052;2023-06-19T08:00:57;7.93;;;6.33;;
8333;SDS011;4204;43.004;23.052;2023-06-19T08:03:24;7.50;;;6.70;;
8333;SDS011;4204;43.004;23.052;2023-06-19T08:05:53;7.30;;;6.50;;
8333;SDS011;4204;43.004;23.052;2023-06-19T08:08:21;6.93;;;6.33;;
8333;SDS011;4204;43.004;23.052;2023-06-19T08:10:49;7.00;;;6.30;;
8333;SDS011;4204;43.004;23.052;2023-06-19T08:13:16;6.53;;;5.93;;
8333;SDS011;4204;43.004;23.052;2023-06-19T08:15:46;8.70;;;6.73;;
8333;SDS011;4204;43.004;23.052;2023-06-19T08:18:13;8.23;;;6.60;;
8333;SDS011;4204;43.004;23.052;2023-06-19T08:20:41;7.30;;;6.10;;
8333;SDS011;4204;43.004;23.052;2023-06-19T08:23:09;8.20;;;6.33;;
8333;SDS011;4204;43.004;23.052;2023-06-19T08:25:36;6.93;;;6.20;;
8333;SDS011;4204;43.004;23.052;2023-06-19T08:28:04;6.47;;;5.87;;
8333;SDS011;4204;43.004;23.052;2023-06-19T08:30:32;8.40;;;6.27;;
8333;SDS011;4204;43.004;23.052;2023-06-19T08:33:01;7.83;;;6.03;;
8333;SDS011;4204;43.004;23.052;2023-06-19T08:35:29;7.40;;;6.70;;
8333;SDS011;4204;43.004;23.052;2023-06-19T08:37:57;7.67;;;6.07;;
8333;SDS011;4204;43.004;23.052;2023-06-19T08:40:24;7.97;;;5.07;;
8333;SDS011;4204;43.004;23.052;2023-06-19T08:42:52;6.70;;;6.10;;
8333;SDS011;4204;43.004;23.052;2023-06-19T08:45:21;6.23;;;5.67;;
8333;SDS011;4204;43.004;23.052;2023-06-19T08:47:50;6.53;;;5.93;;
8333;SDS011;4204;43.004;23.052;2023-06-19T08:50:26;6.70;;;6.10;;
8333;SDS011;4204;43.004;23.052;2023-06-19T08:52:54;6.50;;;5.87;;
8333;SDS011;4204;43.004;23.052;2023-06-19T08:55:22;6.27;;;5.67;;
8333;SDS011;4204;43.004;23.052;2023-06-19T08:57:50;6.00;;;5.50;;
8333;SDS011;4204;43.004;23.052;2023-06-19T09:00:25;6.50;;;5.57;;
8333;SDS011;4204;43.004;23.052;2023-06-19T09:02:59;6.30;;;5.70;;
8333;SDS011;4204;43.004;23.052;2023-06-19T09:05:29;6.37;;;5.80;;
8333;SDS011;4204;43.004;23.052;2023-06-19T09:07:57;7.23;;;6.07;;
8333;SDS011;4204;43.004;23.052;2023-06-19T09:10:27;6.37;;;5.77;;
8333;SDS011;4204;43.004;23.052;2023-06-19T09:12:58;7.20;;;5.80;;
8333;SDS011;4204;43.004;23.052;2023-06-19T09:15:27;6.50;;;5.90;;
8333;SDS011;4204;43.004;23.052;2023-06-19T09:18:04;6.77;;;6.07;;
8333;SDS011;4204;43.004;23.052;2023-06-19T09:20:34;6.40;;;5.80;;
8333;SDS011;4204;43.004;23.052;2023-06-19T09:23:07;6.77;;;5.60;;
8333;SDS011;4204;43.004;23.052;2023-06-19T09:25:43;6.43;;;5.83;;
8333;SDS011;4204;43.004;23.052;2023-06-19T09:28:16;6.53;;;5.70;;
8333;SDS011;4204;43.004;23.052;2023-06-19T09:30:51;7.07;;;5.43;;
8333;SDS011;4204;43.004;23.052;2023-06-19T09:33:20;7.40;;;5.53;;
8333;SDS011;4204;43.004;23.052;2023-06-19T09:35:50;6.40;;;5.80;;
8333;SDS011;4204;43.004;23.052;2023-06-19T09:38:21;5.90;;;5.40;;
8333;SDS011;4204;43.004;23.052;2023-06-19T09:40:52;6.13;;;5.50;;
8333;SDS011;4204;43.004;23.052;2023-06-19T09:43:22;6.57;;;5.87;;
8333;SDS011;4204;43.004;23.052;2023-06-19T09:45:54;6.77;;;6.00;;
8333;SDS011;4204;43.004;23.052;2023-06-19T09:48:26;6.00;;;5.40;;
8333;SDS011;4204;43.004;23.052;2023-06-19T09:50:59;6.07;;;5.50;;
8333;SDS011;4204;43.004;23.052;2023-06-19T09:53:30;6.33;;;5.53;;
8333;SDS011;4204;43.004;23.052;2023-06-19T09:55:58;7.23;;;5.43;;
8333;SDS011;4204;43.004;23.052;2023-06-19T09:58:27;5.60;;;5.10;;
8333;SDS011;4204;43.004;23.052;2023-06-19T10:00:56;6.83;;;5.20;;
8333;SDS011;4204;43.004;23.052;2023-06-19T10:03:30;6.00;;;5.47;;
8333;SDS011;4204;43.004;23.052;2023-06-19T10:06:00;6.17;;;5.57;;
8333;SDS011;4204;43.004;23.052;2023-06-19T10:08:29;6.47;;;5.87;;
8333;SDS011;4204;43.004;23.052;2023-06-19T10:10:58;7.77;;;5.63;;
8333;SDS011;4204;43.004;23.052;2023-06-19T10:13:31;7.13;;;6.00;;
8333;SDS011;4204;43.004;23.052;2023-06-19T10:16:00;6.93;;;5.90;;
8333;SDS011;4204;43.004;23.052;2023-06-19T10:18:28;6.30;;;5.70;;
8333;SDS011;4204;43.004;23.052;2023-06-19T10:20:56;6.00;;;5.50;;
8333;SDS011;4204;43.004;23.052;2023-06-19T10:23:25;7.00;;;5.37;;
8333;SDS011;4204;43.004;23.052;2023-06-19T10:25:55;6.20;;;5.57;;
8333;SDS011;4204;43.004;23.052;2023-06-19T10:28:24;5.83;;;5.23;;
8333;SDS011;4204;43.004;23.052;2023-06-19T10:30:53;8.83;;;5.47;;
8333;SDS011;4204;43.004;23.052;2023-06-19T10:33:22;6.30;;;5.30;;
8333;SDS011;4204;43.004;23.052;2023-06-19T10:35:50;5.93;;;5.43;;
8333;SDS011;4204;43.004;23.052;2023-06-19T10:38:19;5.63;;;5.13;;
8333;SDS011;4204;43.004;23.052;2023-06-19T10:40:48;7.97;;;5.50;;
8333;SDS011;4204;43.004;23.052;2023-06-19T10:43:19;5.70;;;5.20;;
8333;SDS011;4204;43.004;23.052;2023-06-19T10:45:48;7.97;;;5.80;;
8333;SDS011;4204;43.004;23.052;2023-06-19T10:48:18;7.23;;;5.63;;
8333;SDS011;4204;43.004;23.052;2023-06-19T10:50:47;6.23;;;5.57;;
8333;SDS011;4204;43.004;23.052;2023-06-19T10:53:25;6.00;;;5.40;;
8333;SDS011;4204;43.004;23.052;2023-06-19T10:55:58;9.97;;;5.43;;
8333;SDS011;4204;43.004;23.052;2023-06-19T10:58:27;6.97;;;5.77;;
8333;SDS011;4204;43.004;23.052;2023-06-19T11:00:56;6.20;;;5.60;;
8333;SDS011;4204;43.004;23.052;2023-06-19T11:03:24;5.93;;;5.30;;
8333;SDS011;4204;43.004;23.052;2023-06-19T11:05:52;6.03;;;5.23;;
8333;SDS011;4204;43.004;23.052;2023-06-19T11:08:20;6.67;;;5.57;;
8333;SDS011;4204;43.004;23.052;2023-06-19T11:10:49;5.90;;;5.20;;
8333;SDS011;4204;43.004;23.052;2023-06-19T11:13:19;5.80;;;5.30;;
8333;SDS011;4204;43.004;23.052;2023-06-19T11:15:48;6.63;;;5.97;;
8333;SDS011;4204;43.004;23.052;2023-06-19T11:18:16;6.80;;;5.13;;
8333;SDS011;4204;43.004;23.052;2023-06-19T11:20:45;6.03;;;5.33;;
8333;SDS011;4204;43.004;23.052;2023-06-19T11:23:15;6.17;;;5.60;;
8333;SDS011;4204;43.004;23.052;2023-06-19T11:25:43;5.33;;;4.70;;
8333;SDS011;4204;43.004;23.052;2023-06-19T11:28:11;7.00;;;5.30;;
8333;SDS011;4204;43.004;23.052;2023-06-19T11:30:41;5.33;;;4.87;;
8333;SDS011;4204;43.004;23.052;2023-06-19T11:33:16;5.63;;;5.13;;
8333;SDS011;4204;43.004;23.052;2023-06-19T11:35:48;5.67;;;5.17;;
8333;SDS011;4204;43.004;23.052;2023-06-19T11:38:18;5.67;;;5.17;;
8333;SDS011;4204;43.004;23.052;2023-06-19T11:40:47;5.83;;;5.33;;
8333;SDS011;4204;43.004;23.052;2023-06-19T11:43:23;6.33;;;4.87;;
8333;SDS011;4204;43.004;23.052;2023-06-19T11:45:59;5.67;;;5.17;;
8333;SDS011;4204;43.004;23.052;2023-06-19T11:48:29;5.30;;;4.80;;
8333;SDS011;4204;43.004;23.052;2023-06-19T11:50:57;5.60;;;5.10;;
8333;SDS011;4204;43.004;23.052;2023-06-19T11:53:25;7.80;;;5.13;;
8333;SDS011;4204;43.004;23.052;2023-06-19T11:55:53;5.47;;;4.97;;
8333;SDS011;4204;43.004;23.052;2023-06-19T11:58:20;6.83;;;5.40;;
8333;SDS011;4204;43.004;23.052;2023-06-19T12:00:48;6.03;;;5.10;;
8333;SDS011;4204;43.004;23.052;2023-06-19T12:03:17;5.13;;;4.63;;
8333;SDS011;4204;43.004;23.052;2023-06-19T12:05:45;5.27;;;4.77;;
8333;SDS011;4204;43.004;23.052;2023-06-19T12:08:13;5.20;;;4.70;;
8333;SDS011;4204;43.004;23.052;2023-06-19T12:10:43;5.07;;;4.60;;
8333;SDS011;4204;43.004;23.052;2023-06-19T12:13:11;5.40;;;4.90;;
8333;SDS011;4204;43.004;23.052;2023-06-19T12:15:38;5.17;;;4.77;;
8333;SDS011;4204;43.004;23.052;2023-06-19T12:18:06;5.67;;;4.67;;
8333;SDS011;4204;43.004;23.052;2023-06-19T12:20:38;5.37;;;4.87;;
8333;SDS011;4204;43.004;23.052;2023-06-19T12:23:06;5.20;;;4.70;;
8333;SDS011;4204;43.004;23.052;2023-06-19T12:25:34;5.57;;;5.00;;
8333;SDS011;4204;43.004;23.052;2023-06-19T12:28:01;6.43;;;5.20;;
8333;SDS011;4204;43.004;23.052;2023-06-19T12:30:31;5.70;;;5.13;;
8333;SDS011;4204;43.004;23.052;2023-06-19T12:32:59;5.30;;;4.90;;
8333;SDS011;4204;43.004;23.052;2023-06-19T12:35:29;5.10;;;4.47;;
8333;SDS011;4204;43.004;23.052;2023-06-19T12:37:58;5.50;;;5.00;;
8333;SDS011;4204;43.004;23.052;2023-06-19T12:40:26;5.43;;;4.93;;
8333;SDS011;4204;43.004;23.052;2023-06-19T12:42:54;6.00;;;4.70;;
8333;SDS011;4204;43.004;23.052;2023-06-19T12:45:21;5.37;;;4.87;;
8333;SDS011;4204;43.004;23.052;2023-06-19T12:47:49;5.27;;;4.13;;
8333;SDS011;4204;43.004;23.052;2023-06-19T12:50:17;6.90;;;4.70;;
8333;SDS011;4204;43.004;23.052;2023-06-19T12:52:45;6.57;;;4.93;;
8333;SDS011;4204;43.004;23.052;2023-06-19T12:55:14;9.80;;;5.47;;
8333;SDS011;4204;43.004;23.052;2023-06-19T12:57:43;5.60;;;5.10;;
8333;SDS011;4204;43.004;23.052;2023-06-19T13:00:11;6.53;;;5.60;;
8333;SDS011;4204;43.004;23.052;2023-06-19T13:02:40;6.30;;;5.70;;
8333;SDS011;4204;43.004;23.052;2023-06-19T13:05:09;6.83;;;5.13;;
8333;SDS011;4204;43.004;23.052;2023-06-19T13:07:37;5.73;;;5.10;;
8333;SDS011;4204;43.004;23.052;2023-06-19T13:10:05;6.07;;;5.57;;
8333;SDS011;4204;43.004;23.052;2023-06-19T13:12:37;5.80;;;5.30;;
8333;SDS011;4204;43.004;23.052;2023-06-19T13:15:06;5.80;;;5.30;;
8333;SDS011;4204;43.004;23.052;2023-06-19T13:17:34;5.63;;;5.13;;
8333;SDS011;4204;43.004;23.052;2023-06-19T13:20:02;6.50;;;4.93;;
8333;SDS011;4204;43.004;23.052;2023-06-19T13:22:32;5.13;;;4.70;;
8333;SDS011;4204;43.004;23.052;2023-06-19T13:25:00;7.80;;;4.97;;
8333;SDS011;4204;43.004;23.052;2023-06-19T13:27:28;5.63;;;4.80;;
8333;SDS011;4204;43.004;23.052;2023-06-19T13:29:57;5.90;;;5.30;;
8333;SDS011;4204;43.004;23.052;2023-06-19T13:32:24;7.00;;;5.77;;
8333;SDS011;4204;43.004;23.052;2023-06-19T13:34:52;6.17;;;4.97;;
8333;SDS011;4204;43.004;23.052;2023-06-19T13:37:20;6.73;;;5.10;;
8333;SDS011;4204;43.004;23.052;2023-06-19T13:39:48;5.80;;;5.30;;
8333;SDS011;4204;43.004;23.052;2023-06-19T13:42:16;6.00;;;5.40;;
8333;SDS011;4204;43.004;23.052;2023-06-19T13:44:43;6.47;;;5.63;;
8333;SDS011;4204;43.004;23.052;2023-06-19T13:47:13;6.37;;;5.43;;
8333;SDS011;4204;43.004;23.052;2023-06-19T13:49:40;6.73;;;6.07;;
8333;SDS011;4204;43.004;23.052;2023-06-19T13:52:08;6.00;;;5.43;;
8333;SDS011;4204;43.004;23.052;2023-06-19T13:54:36;6.40;;;5.80;;
8333;SDS011;4204;43.004;23.052;2023-06-19T13:57:04;6.40;;;5.80;;
8333;SDS011;4204;43.004;23.052;2023-06-19T13:59:32;6.23;;;5.70;;
8333;SDS011;4204;43.004;23.052;2023-06-19T14:02:00;6.20;;;5.60;;
8333;SDS011;4204;43.004;23.052;2023-06-19T14:04:29;5.80;;;5.10;;
8333;SDS011;4204;43.004;23.052;2023-06-19T14:06:57;5.30;;;4.80;;
8333;SDS011;4204;43.004;23.052;2023-06-19T14:09:26;6.00;;;5.27;;
8333;SDS011;4204;43.004;23.052;2023-06-19T14:11:54;6.07;;;5.27;;
8333;SDS011;4204;43.004;23.052;2023-06-19T14:14:21;6.03;;;5.43;;
8333;SDS011;4204;43.004;23.052;2023-06-19T14:16:49;5.63;;;5.13;;
8333;SDS011;4204;43.004;23.052;2023-06-19T14:19:17;5.80;;;5.33;;
8333;SDS011;4204;43.004;23.052;2023-06-19T14:21:46;5.63;;;5.03;;
8333;SDS011;4204;43.004;23.052;2023-06-19T14:24:14;5.93;;;5.37;;
8333;SDS011;4204;43.004;23.052;2023-06-19T14:26:42;6.00;;;5.50;;
8333;SDS011;4204;43.004;23.052;2023-06-19T14:29:09;6.03;;;5.30;;
8333;SDS011;4204;43.004;23.052;2023-06-19T14:31:41;6.13;;;5.37;;
8333;SDS011;4204;43.004;23.052;2023-06-19T14:34:08;6.60;;;5.60;;
8333;SDS011;4204;43.004;23.052;2023-06-19T14:36:36;6.10;;;5.50;;
8333;SDS011;4204;43.004;23.052;2023-06-19T14:39:06;6.10;;;5.50;;
8333;SDS011;4204;43.004;23.052;2023-06-19T14:41:34;5.83;;;5.33;;
8333;SDS011;4204;43.004;23.052;2023-06-19T14:44:01;5.60;;;5.10;;
8333;SDS011;4204;43.004;23.052;2023-06-19T14:46:29;6.83;;;6.03;;
8333;SDS011;4204;43.004;23.052;2023-06-19T14:48:57;7.43;;;5.73;;
8333;SDS011;4204;43.004;23.052;2023-06-19T14:51:27;9.53;;;6.23;;
8333;SDS011;4204;43.004;23.052;2023-06-19T14:53:55;6.50;;;5.77;;
8333;SDS011;4204;43.004;23.052;2023-06-19T14:56:24;6.73;;;5.80;;
8333;SDS011;4204;43.004;23.052;2023-06-19T14:58:54;6.90;;;6.20;;
8333;SDS011;4204;43.004;23.052;2023-06-19T15:01:22;6.77;;;5.73;;
8333;SDS011;4204;43.004;23.052;2023-06-19T15:03:49;5.97;;;5.47;;
8333;SDS011;4204;43.004;23.052;2023-06-19T15:06:17;6.33;;;5.73;;
8333;SDS011;4204;43.004;23.052;2023-06-19T15:08:45;7.20;;;6.13;;
8333;SDS011;4204;43.004;23.052;2023-06-19T15:11:12;6.93;;;5.93;;